createdAt,value
2017-07-02T00:00:56.956Z,88.40
2017-07-02T00:03:24.462Z,87.80
2017-07-02T00:05:51.948Z,89.00
2017-07-02T00:08:19.460Z,89.10
2017-07-02T00:10:46.938Z,87.90
2017-07-02T00:13:14.447Z,88.90
2017-07-02T00:15:41.939Z,88.30
2017-07-02T00:18:10.211Z,88.20
2017-07-02T00:20:37.700Z,88.10
2017-07-02T00:23:05.207Z,89.10
2017-07-02T00:25:32.703Z,88.70
2017-07-02T00:28:00.967Z,89.70
2017-07-02T00:30:29.223Z,90.50
2017-07-02T00:32:56.726Z,90.10
2017-07-02T00:35:24.207Z,89.40
2017-07-02T00:37:51.716Z,89.70
2017-07-02T00:40:19.211Z,89.90
2017-07-02T00:42:46.711Z,89.30
2017-07-02T00:45:14.203Z,89.50
2017-07-02T00:47:42.472Z,87.90
2017-07-02T00:50:10.731Z,88.90
2017-07-02T00:52:38.232Z,88.40
2017-07-02T00:55:05.718Z,89.00
2017-07-02T00:57:33.234Z,90.20
2017-07-02T01:00:01.492Z,90.00
2017-07-02T01:02:29.004Z,89.30
2017-07-02T01:04:56.492Z,90.20
2017-07-02T01:07:24.003Z,90.00
2017-07-02T01:09:51.492Z,90.30
2017-07-02T01:12:18.997Z,90.00
2017-07-02T01:14:46.487Z,88.90
2017-07-02T01:17:13.976Z,90.30
2017-07-02T01:19:41.490Z,89.70
2017-07-02T01:22:08.976Z,90.30
2017-07-02T01:24:36.475Z,90.00
2017-07-02T01:27:03.964Z,90.60
2017-07-02T01:29:32.235Z,90.60
2017-07-02T01:32:00.484Z,89.70
2017-07-02T01:34:27.988Z,89.60
2017-07-02T01:36:55.475Z,90.50
2017-07-02T01:39:22.988Z,90.20
2017-07-02T01:41:51.248Z,90.10
2017-07-02T01:44:18.756Z,90.10
2017-07-02T01:46:46.246Z,91.20
2017-07-02T01:49:13.760Z,91.10
2017-07-02T01:51:41.252Z,90.30
2017-07-02T01:54:08.775Z,91.20
2017-07-02T01:56:37.042Z,90.80
2017-07-02T01:59:05.327Z,90.30
2017-07-02T02:01:45.363Z,90.50
2017-07-02T02:04:12.875Z,90.40
2017-07-02T02:06:40.358Z,90.80
2017-07-02T02:09:07.868Z,89.90
2017-07-02T02:11:35.351Z,90.60
2017-07-02T02:14:02.859Z,90.70
2017-07-02T02:16:30.364Z,90.10
2017-07-02T02:18:57.868Z,91.10
2017-07-02T02:21:25.355Z,91.10
2017-07-02T02:23:53.635Z,91.10
2017-07-02T02:26:21.139Z,91.00
2017-07-02T02:28:48.655Z,91.20
2017-07-02T02:31:16.912Z,91.10
2017-07-02T02:33:44.423Z,91.10
2017-07-02T02:36:11.917Z,91.80
2017-07-02T02:38:39.428Z,91.60
2017-07-02T02:41:06.912Z,91.60
2017-07-02T02:43:34.423Z,91.50
2017-07-02T02:46:01.912Z,91.60
2017-07-02T02:48:29.425Z,91.60
2017-07-02T02:50:56.910Z,91.40
2017-07-02T02:53:24.419Z,91.40
2017-07-02T02:55:51.911Z,91.80
2017-07-02T02:58:20.190Z,91.90
2017-07-02T03:00:47.685Z,91.90
2017-07-02T03:03:15.194Z,91.40
2017-07-02T03:05:42.905Z,91.40
2017-07-02T03:08:10.415Z,91.50
2017-07-02T03:10:37.899Z,91.80
2017-07-02T03:13:06.166Z,91.60
2017-07-02T03:15:34.420Z,91.70
2017-07-02T03:18:01.927Z,91.50
2017-07-02T03:20:29.410Z,91.50
2017-07-02T03:22:56.970Z,91.30
2017-07-02T03:25:24.442Z,91.80
2017-07-02T03:27:51.948Z,91.70
2017-07-02T03:30:19.448Z,91.80
2017-07-02T03:32:46.959Z,91.20
2017-07-02T03:35:14.443Z,91.50
2017-07-02T03:37:41.948Z,91.80
2017-07-02T03:40:09.436Z,91.70
2017-07-02T03:42:36.955Z,91.40
2017-07-02T03:45:04.443Z,91.70
2017-07-02T03:47:31.951Z,91.80
2017-07-02T03:49:59.439Z,91.80
2017-07-02T03:52:26.947Z,91.00
2017-07-02T03:54:54.428Z,91.90
2017-07-02T03:57:21.928Z,91.90
2017-07-02T03:59:49.412Z,91.50
2017-07-02T04:02:17.691Z,92.00
2017-07-02T04:04:45.940Z,91.90
2017-07-02T04:07:13.452Z,91.80
2017-07-02T04:09:40.943Z,91.60
2017-07-02T04:12:08.443Z,91.60
2017-07-02T04:14:36.698Z,91.40
2017-07-02T04:17:04.203Z,91.30
2017-07-02T04:19:31.912Z,91.50
2017-07-02T04:21:59.435Z,91.50
2017-07-02T04:24:26.932Z,91.40
2017-07-02T04:26:54.443Z,91.70
2017-07-02T04:29:21.935Z,91.50
2017-07-02T04:31:49.436Z,91.20
2017-07-02T04:34:17.683Z,91.40
2017-07-02T04:36:45.191Z,91.00
2017-07-02T04:39:12.679Z,91.20
2017-07-02T04:41:40.190Z,90.70
2017-07-02T04:44:08.446Z,91.10
2017-07-02T04:46:36.766Z,91.10
2017-07-02T04:49:04.307Z,90.90
2017-07-02T04:51:32.589Z,91.60
2017-07-02T04:54:00.847Z,90.80
2017-07-02T04:56:28.359Z,90.80
2017-07-02T04:58:55.853Z,90.90
2017-07-02T05:01:23.364Z,90.90
2017-07-02T05:03:50.860Z,90.90
2017-07-02T05:06:18.358Z,90.90
2017-07-02T05:08:46.621Z,91.20
2017-07-02T05:11:14.136Z,91.20
2017-07-02T05:13:41.627Z,90.80
2017-07-02T05:16:09.149Z,91.20
2017-07-02T05:18:36.652Z,91.70
2017-07-02T05:21:04.171Z,91.00
2017-07-02T05:23:31.665Z,91.50
2017-07-02T05:25:59.175Z,91.30
2017-07-02T05:28:26.893Z,90.90
2017-07-02T05:30:54.412Z,91.00
2017-07-02T05:33:24.041Z,90.70
2017-07-02T05:35:51.567Z,91.20
2017-07-02T05:38:19.080Z,90.90
2017-07-02T05:40:46.600Z,90.50
2017-07-02T05:43:14.100Z,90.30
2017-07-02T05:45:41.640Z,90.80
2017-07-02T05:48:09.151Z,91.30
2017-07-02T05:50:36.773Z,91.10
2017-07-02T05:53:04.311Z,90.50
2017-07-02T05:55:31.821Z,90.40
2017-07-02T05:57:59.868Z,91.40
2017-07-02T06:00:27.368Z,90.90
2017-07-02T06:02:54.892Z,90.80
2017-07-02T06:05:22.392Z,90.20
2017-07-02T06:07:49.912Z,90.50
2017-07-02T06:10:17.412Z,89.70
2017-07-02T06:12:44.928Z,91.00
2017-07-02T06:15:12.428Z,90.70
2017-07-02T06:17:39.955Z,90.50
2017-07-02T06:20:07.448Z,90.40
2017-07-02T06:22:34.970Z,90.20
2017-07-02T06:25:02.472Z,90.80
2017-07-02T06:27:29.995Z,90.10
2017-07-02T06:29:57.493Z,90.80
2017-07-02T06:32:25.016Z,88.90
2017-07-02T06:34:52.513Z,88.80
2017-07-02T06:37:20.031Z,89.40
2017-07-02T06:39:47.528Z,89.30
2017-07-02T06:42:15.049Z,88.60
2017-07-02T06:44:42.541Z,89.90
2017-07-02T06:47:10.051Z,88.30
2017-07-02T06:49:37.821Z,88.50
2017-07-02T06:52:05.503Z,87.50
2017-07-02T06:54:33.963Z,85.50
2017-07-02T06:57:01.511Z,85.40
2017-07-02T06:59:28.995Z,84.10
2017-07-02T07:01:56.503Z,83.70
2017-07-02T07:04:23.993Z,85.50
2017-07-02T07:06:51.494Z,83.70
2017-07-02T07:09:19.758Z,85.10
2017-07-02T07:11:48.049Z,86.90
2017-07-02T07:14:16.325Z,85.90
2017-07-02T07:16:44.615Z,83.70
2017-07-02T07:19:12.660Z,83.70
2017-07-02T07:21:40.177Z,84.40
2017-07-02T07:24:07.677Z,81.90
2017-07-02T07:26:35.200Z,80.60
2017-07-02T07:29:02.686Z,83.10
2017-07-02T07:31:30.187Z,80.60
2017-07-02T07:33:57.680Z,81.70
2017-07-02T07:36:25.187Z,80.90
2017-07-02T07:38:53.451Z,83.30
2017-07-02T07:41:20.963Z,83.20
2017-07-02T07:43:48.460Z,79.40
2017-07-02T07:46:15.968Z,80.10
2017-07-02T07:48:43.464Z,77.80
2017-07-02T07:51:10.972Z,80.10
2017-07-02T07:53:39.227Z,80.60
2017-07-02T07:56:06.792Z,80.40
2017-07-02T07:58:34.279Z,81.00
2017-07-02T08:01:01.788Z,82.70
2017-07-02T08:03:29.276Z,84.80
2017-07-02T08:05:57.554Z,82.60
2017-07-02T08:08:25.811Z,79.20
2017-07-02T08:10:53.320Z,79.10
2017-07-02T08:13:20.815Z,79.90
2017-07-02T08:15:48.326Z,77.70
2017-07-02T08:18:15.817Z,77.80
2017-07-02T08:20:43.324Z,77.70
2017-07-02T08:23:12.520Z,76.30
2017-07-02T08:25:40.028Z,76.30
2017-07-02T08:28:07.512Z,75.60
2017-07-02T08:30:35.059Z,73.80
2017-07-02T08:33:02.551Z,76.10
2017-07-02T08:35:30.831Z,78.20
2017-07-02T08:37:59.087Z,75.00
2017-07-02T08:40:26.597Z,74.10
2017-07-02T08:42:54.088Z,75.10
2017-07-02T08:45:21.599Z,76.00
2017-07-02T08:47:49.855Z,74.00
2017-07-02T08:50:17.366Z,74.00
2017-07-02T08:52:44.867Z,76.40
2017-07-02T08:55:12.387Z,73.60
2017-07-02T08:57:39.875Z,75.20
2017-07-02T09:00:07.387Z,73.80
2017-07-02T09:02:34.878Z,74.30
2017-07-02T09:05:02.387Z,75.00
2017-07-02T09:07:30.643Z,78.60
2017-07-02T09:09:58.156Z,78.50
2017-07-02T09:12:25.646Z,78.90
2017-07-02T09:14:53.151Z,79.00
2017-07-02T09:17:20.649Z,78.00
2017-07-02T09:19:48.165Z,79.10
2017-07-02T09:22:15.654Z,77.50
2017-07-02T09:24:43.171Z,78.70
2017-07-02T09:27:11.443Z,76.20
2017-07-02T09:29:38.963Z,76.10
2017-07-02T09:32:06.452Z,77.90
2017-07-02T09:34:33.956Z,77.40
2017-07-02T09:37:01.447Z,76.20
2017-07-02T09:39:28.967Z,76.30
2017-07-02T09:41:56.464Z,77.80
2017-07-02T09:44:23.992Z,78.70
2017-07-02T09:46:51.483Z,78.00
2017-07-02T09:49:18.991Z,77.40
2017-07-02T09:51:47.242Z,78.90
2017-07-02T09:54:14.748Z,78.70
2017-07-02T09:56:42.239Z,78.70
2017-07-02T09:59:09.747Z,78.70
2017-07-02T10:01:38.017Z,77.10
2017-07-02T10:04:06.299Z,76.90
2017-07-02T10:06:33.807Z,76.80
2017-07-02T10:09:01.311Z,74.80
2017-07-02T10:11:28.829Z,74.70
2017-07-02T10:13:56.331Z,73.80
2017-07-02T10:16:24.582Z,71.90
2017-07-02T10:18:52.091Z,71.70
2017-07-02T10:21:19.576Z,72.50
2017-07-02T10:23:47.079Z,71.90
2017-07-02T10:26:14.582Z,71.40
2017-07-02T10:28:42.071Z,69.10
2017-07-02T10:31:09.576Z,70.00
2017-07-02T10:33:37.831Z,68.00
2017-07-02T10:36:06.075Z,67.80
2017-07-02T10:38:33.611Z,66.90
2017-07-02T10:41:01.118Z,64.00
2017-07-02T10:43:28.615Z,63.50
2017-07-02T10:45:56.115Z,61.80
2017-07-02T10:48:23.595Z,59.80
2017-07-02T10:50:51.095Z,59.50
2017-07-02T10:53:18.576Z,60.30
2017-07-02T10:55:46.075Z,59.10
2017-07-02T10:58:13.556Z,58.70
2017-07-02T11:00:41.826Z,61.20
2017-07-02T11:03:10.074Z,62.60
2017-07-02T11:05:37.578Z,61.80
2017-07-02T11:08:05.067Z,61.40
2017-07-02T11:10:32.568Z,60.70
2017-07-02T11:13:00.064Z,61.30
2017-07-02T11:15:27.567Z,61.00
2017-07-02T11:17:55.063Z,62.80
2017-07-02T11:20:22.571Z,65.20
2017-07-02T11:22:50.060Z,64.20
2017-07-02T11:25:17.566Z,69.00
2017-07-02T11:27:45.057Z,73.20
2017-07-02T11:30:12.581Z,73.10
2017-07-02T11:32:40.059Z,75.30
2017-07-02T11:35:07.559Z,74.10
2017-07-02T11:37:35.532Z,70.80
2017-07-02T11:40:03.098Z,69.90
2017-07-02T11:42:30.591Z,69.20
2017-07-02T11:44:58.362Z,71.70
2017-07-02T11:47:25.900Z,71.40
2017-07-02T11:49:53.407Z,70.40
2017-07-02T11:52:20.899Z,69.90
2017-07-02T11:54:48.407Z,69.10
2017-07-02T11:57:15.895Z,70.20
2017-07-02T11:59:43.395Z,69.30
2017-07-02T12:02:10.879Z,66.60
2017-07-02T12:04:38.379Z,65.70
2017-07-02T12:07:05.864Z,61.30
2017-07-02T12:09:34.134Z,57.90
2017-07-02T12:12:02.387Z,59.90
2017-07-02T12:14:29.899Z,59.90
2017-07-02T12:16:57.827Z,56.00
2017-07-02T12:19:26.121Z,52.60
2017-07-02T12:21:54.459Z,52.50
2017-07-02T12:24:21.964Z,51.50
2017-07-02T12:26:50.218Z,50.80
2017-07-02T12:29:17.739Z,50.90
2017-07-02T12:31:45.223Z,53.30
2017-07-02T12:34:12.728Z,54.10
2017-07-02T12:36:40.208Z,51.30
2017-07-02T12:39:07.722Z,53.00
2017-07-02T12:41:35.207Z,53.40
2017-07-02T12:44:02.712Z,56.20
2017-07-02T12:46:30.211Z,56.10
2017-07-02T12:48:57.716Z,57.20
2017-07-02T12:51:25.215Z,57.20
2017-07-02T12:53:52.719Z,55.50
2017-07-02T12:56:20.207Z,56.30
2017-07-02T12:58:47.709Z,54.50
2017-07-02T13:01:15.959Z,55.90
2017-07-02T13:03:43.462Z,55.80
2017-07-02T13:06:10.955Z,52.60
2017-07-02T13:08:38.459Z,53.60
2017-07-02T13:11:06.724Z,54.50
2017-07-02T13:13:34.228Z,54.40
2017-07-02T13:16:01.711Z,55.00
2017-07-02T13:18:29.211Z,56.10
2017-07-02T13:20:56.715Z,56.70
2017-07-02T13:23:24.223Z,56.20
2017-07-02T13:25:51.709Z,57.30
2017-07-02T13:28:19.212Z,56.70
2017-07-02T13:30:46.715Z,55.70
2017-07-02T13:33:14.221Z,57.10
2017-07-02T13:35:42.943Z,57.90
2017-07-02T13:38:11.220Z,58.60
2017-07-02T13:40:38.713Z,58.10
2017-07-02T13:43:06.219Z,58.00
2017-07-02T13:45:33.710Z,58.90
2017-07-02T13:48:01.993Z,61.00
2017-07-02T13:50:29.477Z,60.70
2017-07-02T13:52:56.980Z,61.30
2017-07-02T13:55:24.472Z,62.60
2017-07-02T13:57:51.979Z,61.50
2017-07-02T14:00:19.475Z,62.00
2017-07-02T14:02:47.755Z,62.00
2017-07-02T14:05:16.016Z,62.70
2017-07-02T14:07:43.523Z,62.60
2017-07-02T14:10:11.024Z,62.10
2017-07-02T14:12:38.539Z,62.00
2017-07-02T14:15:06.048Z,63.10
2017-07-02T14:17:33.562Z,64.00
2017-07-02T14:20:01.067Z,64.90
2017-07-02T14:22:28.575Z,64.30
2017-07-02T14:24:56.100Z,64.30
2017-07-02T14:27:24.372Z,66.20
2017-07-02T14:29:51.863Z,65.90
2017-07-02T14:32:19.364Z,65.40
2017-07-02T14:34:46.850Z,64.90
2017-07-02T14:37:14.368Z,65.30
2017-07-02T14:39:41.855Z,64.40
2017-07-02T14:42:09.354Z,66.00
2017-07-02T14:44:36.839Z,64.90
2017-07-02T14:47:04.357Z,65.90
2017-07-02T14:49:32.620Z,67.50
2017-07-02T14:52:00.141Z,67.40
2017-07-02T14:54:27.633Z,67.10
2017-07-02T14:56:55.136Z,66.30
2017-07-02T14:59:22.624Z,66.50
2017-07-02T15:01:50.138Z,66.30
2017-07-02T15:04:17.651Z,67.30
2017-07-02T15:06:45.159Z,66.70
2017-07-02T15:09:12.647Z,66.10
2017-07-02T15:11:40.165Z,66.60
2017-07-02T15:14:08.429Z,66.40
2017-07-02T15:16:36.043Z,66.30
2017-07-02T15:19:03.561Z,66.00
2017-07-02T15:21:31.814Z,65.30
2017-07-02T15:23:59.327Z,65.50
2017-07-02T15:26:26.826Z,66.20
2017-07-02T15:28:54.337Z,65.90
2017-07-02T15:31:21.827Z,67.20
2017-07-02T15:33:49.328Z,65.70
2017-07-02T15:36:16.811Z,66.00
2017-07-02T15:38:44.330Z,65.80
2017-07-02T15:41:11.888Z,66.30
2017-07-02T15:43:39.482Z,66.20
2017-07-02T15:46:07.817Z,68.00
2017-07-02T15:48:35.323Z,67.80
2017-07-02T15:51:03.581Z,67.20
2017-07-02T15:53:31.090Z,67.00
2017-07-02T15:55:59.933Z,66.70
2017-07-02T15:58:27.531Z,68.50
2017-07-02T16:00:55.164Z,67.80
2017-07-02T16:03:22.767Z,68.50
2017-07-02T16:05:50.311Z,68.80
2017-07-02T16:08:17.840Z,70.00
2017-07-02T16:10:46.125Z,69.40
2017-07-02T16:13:14.456Z,69.40
2017-07-02T16:15:41.984Z,69.40
2017-07-02T16:18:09.535Z,70.30
2017-07-02T16:20:37.064Z,70.10
2017-07-02T16:23:04.640Z,70.00
2017-07-02T16:25:32.145Z,69.70
2017-07-02T16:27:59.725Z,69.60
2017-07-02T16:30:27.285Z,68.90
2017-07-02T16:32:54.864Z,68.40
2017-07-02T16:35:22.407Z,68.90
2017-07-02T16:37:50.009Z,69.30
2017-07-02T16:40:18.366Z,69.00
2017-07-02T16:42:45.914Z,68.80
2017-07-02T16:45:13.458Z,68.40
2017-07-02T16:47:41.052Z,68.90
2017-07-02T16:50:08.609Z,68.90
2017-07-02T16:52:36.164Z,68.60
2017-07-02T16:55:03.681Z,70.50
2017-07-02T16:57:31.273Z,69.70
2017-07-02T16:59:59.017Z,68.60
2017-07-02T17:02:26.580Z,69.00
2017-07-02T17:04:54.115Z,69.20
2017-07-02T17:07:21.652Z,69.00
2017-07-02T17:09:49.205Z,69.50
2017-07-02T17:12:17.574Z,68.80
2017-07-02T17:14:45.130Z,68.70
2017-07-02T17:17:12.680Z,70.70
2017-07-02T17:19:40.209Z,69.60
2017-07-02T17:22:07.743Z,69.10
2017-07-02T17:24:35.274Z,69.80
2017-07-02T17:27:03.027Z,69.50
2017-07-02T17:29:30.671Z,70.20
2017-07-02T17:31:58.324Z,69.80
2017-07-02T17:34:26.031Z,69.50
2017-07-02T17:36:53.862Z,70.50
2017-07-02T17:39:22.253Z,69.90
2017-07-02T17:44:30.571Z,69.50
2017-07-02T17:46:58.079Z,69.40
2017-07-02T17:49:25.587Z,68.10
2017-07-02T17:51:53.102Z,68.50
2017-07-02T17:54:20.592Z,68.90
2017-07-02T17:56:48.093Z,68.70
2017-07-02T17:59:15.595Z,67.80
2017-07-02T18:01:43.101Z,68.30
2017-07-02T18:04:10.603Z,68.60
2017-07-02T18:06:38.127Z,69.50
2017-07-02T18:09:05.620Z,68.70
2017-07-02T18:11:33.142Z,67.70
2017-07-02T18:14:00.647Z,69.50
2017-07-02T18:16:28.160Z,69.90
2017-07-02T18:18:55.654Z,69.70
2017-07-02T18:21:23.172Z,70.20
2017-07-02T18:23:50.668Z,70.20
2017-07-02T18:26:18.188Z,70.40
2017-07-02T18:28:45.751Z,69.90
2017-07-02T18:31:13.283Z,69.00
2017-07-02T18:33:40.812Z,69.90
2017-07-02T18:36:08.336Z,69.50
2017-07-02T18:38:35.848Z,69.40
2017-07-02T18:41:03.392Z,70.00
2017-07-02T18:43:31.659Z,70.50
2017-07-02T18:45:59.179Z,70.30
2017-07-02T18:48:26.676Z,71.30
2017-07-02T18:50:54.190Z,71.40
2017-07-02T18:53:21.708Z,72.60
2017-07-02T18:55:49.281Z,70.90
2017-07-02T18:58:16.820Z,72.70
2017-07-02T19:00:44.349Z,73.10
2017-07-02T19:03:11.865Z,74.40
2017-07-02T19:05:39.397Z,76.30
2017-07-02T19:08:06.929Z,74.70
2017-07-02T19:10:34.468Z,77.00
2017-07-02T19:13:01.989Z,77.80
2017-07-02T19:15:29.633Z,77.40
2017-07-02T19:17:57.145Z,81.20
2017-07-02T19:20:25.463Z,80.50
2017-07-02T19:22:52.978Z,80.40
2017-07-02T19:25:20.535Z,81.60
2017-07-02T19:27:48.813Z,81.20
2017-07-02T19:30:16.342Z,82.90
2017-07-02T19:32:43.884Z,83.20
2017-07-02T19:35:11.479Z,85.10
2017-07-02T19:37:39.024Z,84.10
2017-07-02T19:40:06.556Z,83.80
2017-07-02T19:42:34.850Z,87.00
2017-07-02T19:45:02.412Z,86.80
2017-07-02T19:47:29.981Z,85.90
2017-07-02T19:49:57.518Z,86.90
2017-07-02T19:52:25.070Z,85.50
2017-07-02T19:54:52.787Z,86.90
2017-07-02T19:57:20.468Z,88.20
2017-07-02T19:59:48.091Z,86.80
2017-07-02T20:02:15.662Z,86.90
2017-07-02T20:04:43.235Z,87.50
2017-07-02T20:07:10.840Z,87.30
2017-07-02T20:09:39.150Z,88.70
2017-07-02T20:12:06.811Z,88.00
2017-07-02T20:14:34.377Z,88.20
2017-07-02T20:17:02.769Z,87.50
2017-07-02T20:19:30.390Z,88.60
2017-07-02T20:22:04.441Z,87.20
2017-07-02T20:24:32.017Z,88.70
2017-07-02T20:27:00.312Z,90.00
2017-07-02T20:29:27.915Z,89.90
2017-07-02T20:31:55.521Z,90.20
2017-07-02T20:34:23.101Z,90.20
2017-07-02T20:36:50.647Z,88.60
2017-07-02T20:39:18.265Z,88.10
2017-07-02T20:41:45.840Z,88.60
2017-07-02T20:44:13.394Z,89.20
2017-07-02T20:46:41.764Z,89.10
2017-07-02T20:49:09.283Z,89.40
2017-07-02T20:51:36.842Z,88.50
2017-07-02T20:54:05.409Z,89.40
2017-07-02T20:56:33.124Z,88.60
2017-07-02T20:59:00.662Z,87.10
2017-07-02T21:01:28.225Z,89.00
2017-07-02T21:03:55.826Z,88.30
2017-07-02T21:06:23.434Z,87.80
2017-07-02T21:08:51.010Z,88.20
2017-07-02T21:11:18.621Z,88.10
2017-07-02T21:13:47.029Z,88.20
2017-07-02T21:16:14.624Z,88.30
2017-07-02T21:18:42.166Z,87.30
2017-07-02T21:21:09.734Z,89.30
2017-07-02T21:23:37.314Z,89.20
2017-07-02T21:26:04.869Z,89.00
2017-07-02T21:28:32.410Z,89.10
2017-07-02T21:30:59.943Z,88.10
2017-07-02T21:33:27.581Z,88.00
2017-07-02T21:35:55.199Z,88.40
2017-07-02T21:38:22.795Z,89.10
2017-07-02T21:40:50.358Z,89.00
2017-07-02T21:43:17.952Z,88.90
2017-07-02T21:45:45.500Z,88.10
2017-07-02T21:48:13.027Z,88.50
2017-07-02T21:50:41.336Z,89.30
2017-07-02T21:53:08.918Z,89.20
2017-07-02T21:55:36.530Z,89.10
2017-07-02T21:58:04.089Z,88.90
2017-07-02T22:00:31.651Z,88.20
2017-07-02T22:02:59.267Z,88.70
2017-07-02T22:05:26.895Z,88.20
2017-07-02T22:07:54.498Z,88.60
2017-07-02T22:10:22.101Z,89.10
2017-07-02T22:12:49.679Z,89.40
2017-07-02T22:15:19.211Z,87.90
2017-07-02T22:17:46.760Z,89.50
2017-07-02T22:20:15.139Z,89.10
2017-07-02T22:22:42.688Z,89.10
2017-07-02T22:25:10.256Z,88.50
2017-07-02T22:27:37.773Z,87.90
2017-07-02T22:30:05.338Z,87.80
2017-07-02T22:32:32.861Z,88.00
2017-07-02T22:35:00.391Z,89.00
2017-07-02T22:37:27.904Z,87.60
2017-07-02T22:39:55.438Z,88.00
2017-07-02T22:42:22.947Z,87.90
2017-07-02T22:44:50.477Z,87.30
2017-07-02T22:47:17.996Z,87.90
2017-07-02T22:49:45.528Z,88.60
2017-07-02T22:52:13.049Z,87.80
2017-07-02T22:54:40.588Z,87.60
2017-07-02T22:57:08.110Z,88.60
2017-07-02T22:59:35.639Z,87.90
2017-07-02T23:02:03.918Z,87.40
2017-07-02T23:04:31.443Z,87.20
2017-07-02T23:06:58.972Z,88.00
2017-07-02T23:09:26.493Z,89.00
2017-07-02T23:11:54.784Z,88.10
2017-07-02T23:14:22.327Z,87.90
2017-07-02T23:16:50.592Z,87.50
2017-07-02T23:19:18.125Z,87.40
2017-07-02T23:21:45.624Z,86.30
2017-07-02T23:24:13.164Z,87.70
2017-07-02T23:26:40.690Z,87.40
2017-07-02T23:29:08.224Z,87.10
2017-07-02T23:31:35.741Z,87.00
2017-07-02T23:34:03.264Z,86.60
2017-07-02T23:36:30.819Z,87.30
2017-07-02T23:38:58.340Z,87.00
2017-07-02T23:41:25.884Z,87.30
2017-07-02T23:43:53.412Z,86.40
2017-07-02T23:46:20.928Z,86.60
2017-07-02T23:48:48.456Z,86.90
2017-07-02T23:51:16.730Z,86.80
2017-07-02T23:53:44.271Z,86.70
2017-07-02T23:56:11.776Z,86.00
2017-07-02T23:58:39.305Z,86.90
